DAL3578 KPHX-KLGA
Flight info
| Callsign | DAL3578 |
|---|---|
| Flight time | N/A |
| Altitude | 33000 |
| Route | BROAK1 MAXXO IRW OKM ARG J46 SOPIE/N0442F350 J46 BNA Q36 SWAPP Q34 SITTR Q108 MAULS Q34 GVE PROUD2 |
| Aircraft | A321/M-SDE3FGHIRWY/LB1 |
Departure
| Time | N/A |
|---|---|
| Airport | Phoenix Sky Harbor International Airport (KPHX) |
Arrival
| Time | 2026-04-30 22:22 |
|---|---|
| Airport | LaGuardia Airport (KLGA) |
| Time | Latitude | Longitude | Altitude | Speed | Heading |
|---|---|---|---|---|---|
| 2026-04-30 21:37 | 38.06110 | -77.45264 | 34857 ft | 511 kts | 84° |
| 2026-04-30 21:37 | 38.06401 | -77.40794 | 34854 ft | 511 kts | 84° |
| 2026-04-30 21:37 | 38.06976 | -77.31836 | 34853 ft | 511 kts | 85° |
| 2026-04-30 21:38 | 38.07542 | -77.22898 | 34858 ft | 509 kts | 85° |
| 2026-04-30 21:38 | 38.08095 | -77.13998 | 34839 ft | 509 kts | 85° |
| 2026-04-30 21:39 | 38.08928 | -77.05145 | 34838 ft | 507 kts | 78° |
| 2026-04-30 21:39 | 38.10613 | -76.96501 | 34835 ft | 504 kts | 70° |
| 2026-04-30 21:40 | 38.13131 | -76.88247 | 34842 ft | 501 kts | 63° |
| 2026-04-30 21:40 | 38.15950 | -76.80217 | 34823 ft | 501 kts | 63° |
| 2026-04-30 21:41 | 38.18761 | -76.72116 | 34833 ft | 501 kts | 63° |
| 2026-04-30 21:41 | 38.21523 | -76.64037 | 34841 ft | 500 kts | 64° |
| 2026-04-30 21:42 | 38.24283 | -76.55930 | 34838 ft | 500 kts | 64° |
| 2026-04-30 21:42 | 38.27198 | -76.47984 | 34841 ft | 497 kts | 57° |
| 2026-04-30 21:43 | 38.31073 | -76.40790 | 34844 ft | 491 kts | 45° |
| 2026-04-30 21:43 | 38.35864 | -76.34736 | 34841 ft | 485 kts | 34° |
| 2026-04-30 21:44 | 38.41210 | -76.29517 | 34846 ft | 483 kts | 32° |
| 2026-04-30 21:44 | 38.46572 | -76.24373 | 34841 ft | 483 kts | 32° |
| 2026-04-30 21:45 | 38.51918 | -76.19164 | 34705 ft | 483 kts | 33° |
| 2026-04-30 21:45 | 38.54576 | -76.16556 | 34478 ft | 480 kts | 33° |
| 2026-04-30 21:45 | 38.57220 | -76.13957 | 34215 ft | 478 kts | 33° |
| 2026-04-30 21:46 | 38.59826 | -76.11395 | 33852 ft | 475 kts | 33° |
| 2026-04-30 21:46 | 38.62447 | -76.08814 | 33340 ft | 475 kts | 33° |
| 2026-04-30 21:46 | 38.65055 | -76.06314 | 32786 ft | 475 kts | 32° |
| 2026-04-30 21:46 | 38.67727 | -76.03830 | 32149 ft | 477 kts | 31° |
| 2026-04-30 21:47 | 38.70409 | -76.01349 | 31498 ft | 479 kts | 31° |
| 2026-04-30 21:47 | 38.73131 | -75.98823 | 30808 ft | 482 kts | 32° |
| 2026-04-30 21:47 | 38.75806 | -75.96331 | 30071 ft | 483 kts | 32° |
| 2026-04-30 21:47 | 38.78509 | -75.93803 | 29449 ft | 477 kts | 32° |
| 2026-04-30 21:48 | 38.81152 | -75.91322 | 29000 ft | 470 kts | 32° |
| 2026-04-30 21:48 | 38.83775 | -75.88856 | 28549 ft | 464 kts | 32° |
| 2026-04-30 21:48 | 38.86380 | -75.86407 | 28105 ft | 459 kts | 32° |
| 2026-04-30 21:48 | 38.88911 | -75.84026 | 27680 ft | 453 kts | 32° |
| 2026-04-30 21:49 | 38.91450 | -75.81637 | 27235 ft | 448 kts | 32° |
| 2026-04-30 21:49 | 38.93957 | -75.79275 | 26799 ft | 443 kts | 31° |
| 2026-04-30 21:49 | 38.96454 | -75.76924 | 26663 ft | 450 kts | 31° |
| 2026-04-30 21:49 | 38.98984 | -75.74541 | 26686 ft | 455 kts | 31° |
| 2026-04-30 21:50 | 39.01534 | -75.72133 | 26712 ft | 456 kts | 32° |
| 2026-04-30 21:50 | 39.04084 | -75.69719 | 26740 ft | 457 kts | 32° |
| 2026-04-30 21:50 | 39.06647 | -75.67291 | 26761 ft | 458 kts | 32° |
| 2026-04-30 21:50 | 39.09210 | -75.64858 | 26783 ft | 459 kts | 32° |
| 2026-04-30 21:51 | 39.11779 | -75.62418 | 26807 ft | 459 kts | 32° |
| 2026-04-30 21:51 | 39.14325 | -75.59998 | 26818 ft | 459 kts | 32° |
| 2026-04-30 21:51 | 39.16895 | -75.57552 | 26820 ft | 460 kts | 32° |
| 2026-04-30 21:51 | 39.19476 | -75.55093 | 26812 ft | 460 kts | 32° |
| 2026-04-30 21:52 | 39.22060 | -75.52631 | 26775 ft | 460 kts | 32° |
| 2026-04-30 21:52 | 39.24622 | -75.50264 | 26279 ft | 459 kts | 30° |
| 2026-04-30 21:52 | 39.27261 | -75.47912 | 25772 ft | 454 kts | 30° |
| 2026-04-30 21:52 | 39.29867 | -75.45612 | 25305 ft | 449 kts | 29° |
| 2026-04-30 21:53 | 39.32417 | -75.43360 | 24853 ft | 445 kts | 29° |
| 2026-04-30 21:53 | 39.34960 | -75.41110 | 24395 ft | 441 kts | 29° |
| 2026-04-30 21:53 | 39.37465 | -75.38886 | 23961 ft | 436 kts | 29° |
| 2026-04-30 21:53 | 39.39943 | -75.36684 | 23513 ft | 432 kts | 29° |
| 2026-04-30 21:54 | 39.42401 | -75.34495 | 23082 ft | 429 kts | 30° |
| 2026-04-30 21:54 | 39.44843 | -75.32321 | 22644 ft | 425 kts | 30° |
| 2026-04-30 21:54 | 39.47260 | -75.30164 | 22216 ft | 422 kts | 30° |
| 2026-04-30 21:54 | 39.49662 | -75.28020 | 21785 ft | 419 kts | 30° |
| 2026-04-30 21:55 | 39.52052 | -75.25860 | 21344 ft | 416 kts | 31° |
| 2026-04-30 21:55 | 39.54370 | -75.23695 | 20951 ft | 413 kts | 31° |
| 2026-04-30 21:55 | 39.56673 | -75.21525 | 20527 ft | 410 kts | 32° |
| 2026-04-30 21:55 | 39.58975 | -75.19353 | 20102 ft | 407 kts | 31° |
| 2026-04-30 21:56 | 39.61253 | -75.17210 | 19706 ft | 404 kts | 31° |
| 2026-04-30 21:56 | 39.63537 | -75.15063 | 19277 ft | 401 kts | 31° |
| 2026-04-30 21:56 | 39.65776 | -75.12961 | 18868 ft | 399 kts | 31° |
| 2026-04-30 21:56 | 39.68037 | -75.10867 | 18458 ft | 395 kts | 30° |
| 2026-04-30 21:57 | 39.70300 | -75.08894 | 18053 ft | 392 kts | 29° |
| 2026-04-30 21:57 | 39.72549 | -75.06969 | 17644 ft | 390 kts | 29° |
| 2026-04-30 21:57 | 39.74822 | -75.05025 | 17213 ft | 388 kts | 29° |
| 2026-04-30 21:57 | 39.77048 | -75.03114 | 16818 ft | 385 kts | 28° |
| 2026-04-30 21:58 | 39.79288 | -75.01185 | 16417 ft | 383 kts | 29° |
| 2026-04-30 21:58 | 39.81494 | -74.99284 | 16013 ft | 380 kts | 29° |
| 2026-04-30 21:58 | 39.83682 | -74.97396 | 15616 ft | 378 kts | 29° |
| 2026-04-30 21:58 | 39.85847 | -74.95509 | 15224 ft | 376 kts | 30° |
| 2026-04-30 21:59 | 39.87999 | -74.93566 | 14833 ft | 374 kts | 30° |
| 2026-04-30 21:59 | 39.90120 | -74.91627 | 14430 ft | 372 kts | 31° |
| 2026-04-30 21:59 | 39.92155 | -74.89548 | 14025 ft | 372 kts | 37° |
| 2026-04-30 22:00 | 39.95751 | -74.84779 | 13227 ft | 370 kts | 45° |
| 2026-04-30 22:00 | 39.99156 | -74.79834 | 12441 ft | 364 kts | 45° |
| 2026-04-30 22:00 | 40.00835 | -74.77411 | 12047 ft | 360 kts | 45° |
| 2026-04-30 22:01 | 40.02507 | -74.75010 | 11656 ft | 357 kts | 45° |
| 2026-04-30 22:01 | 40.04185 | -74.72604 | 11258 ft | 354 kts | 45° |
| 2026-04-30 22:01 | 40.05830 | -74.70243 | 10866 ft | 351 kts | 45° |
| 2026-04-30 22:01 | 40.07456 | -74.67907 | 10523 ft | 344 kts | 45° |
| 2026-04-30 22:02 | 40.09041 | -74.65627 | 10239 ft | 337 kts | 45° |
| 2026-04-30 22:02 | 40.10586 | -74.63403 | 10045 ft | 326 kts | 45° |
| 2026-04-30 22:02 | 40.12083 | -74.61245 | 10018 ft | 310 kts | 45° |
| 2026-04-30 22:02 | 40.13502 | -74.59199 | 10014 ft | 302 kts | 45° |
| 2026-04-30 22:03 | 40.14908 | -74.57175 | 10010 ft | 303 kts | 45° |
| 2026-04-30 22:03 | 40.16324 | -74.55135 | 10008 ft | 304 kts | 45° |
| 2026-04-30 22:03 | 40.17737 | -74.53099 | 10013 ft | 304 kts | 45° |
| 2026-04-30 22:03 | 40.19157 | -74.51047 | 10037 ft | 304 kts | 45° |
| 2026-04-30 22:04 | 40.20594 | -74.49041 | 10041 ft | 303 kts | 42° |
| 2026-04-30 22:04 | 40.22103 | -74.47112 | 10015 ft | 302 kts | 41° |
| 2026-04-30 22:04 | 40.25129 | -74.43307 | 10012 ft | 301 kts | 41° |
| 2026-04-30 22:05 | 40.26630 | -74.41415 | 10010 ft | 302 kts | 41° |
| 2026-04-30 22:05 | 40.28151 | -74.39497 | 10016 ft | 302 kts | 41° |
| 2026-04-30 22:05 | 40.29664 | -74.37585 | 10003 ft | 301 kts | 41° |
| 2026-04-30 22:05 | 40.31153 | -74.35702 | 10013 ft | 301 kts | 41° |
| 2026-04-30 22:06 | 40.32669 | -74.33783 | 10005 ft | 302 kts | 42° |
| 2026-04-30 22:06 | 40.35695 | -74.29949 | 10003 ft | 302 kts | 42° |
| 2026-04-30 22:06 | 40.37210 | -74.28027 | 10004 ft | 303 kts | 42° |
| 2026-04-30 22:07 | 40.38706 | -74.26128 | 10000 ft | 302 kts | 42° |
| 2026-04-30 22:07 | 40.40230 | -74.24193 | 9991 ft | 302 kts | 41° |
| 2026-04-30 22:07 | 40.41742 | -74.22271 | 9993 ft | 302 kts | 41° |
| 2026-04-30 22:07 | 40.43256 | -74.20348 | 9973 ft | 301 kts | 41° |
| 2026-04-30 22:08 | 40.44751 | -74.18446 | 10000 ft | 302 kts | 41° |
| 2026-04-30 22:08 | 40.46255 | -74.16528 | 10000 ft | 302 kts | 41° |
| 2026-04-30 22:08 | 40.47758 | -74.14612 | 10004 ft | 302 kts | 41° |
| 2026-04-30 22:08 | 40.49262 | -74.12695 | 10001 ft | 302 kts | 41° |
| 2026-04-30 22:09 | 40.50786 | -74.10768 | 10003 ft | 302 kts | 40° |
| 2026-04-30 22:09 | 40.52385 | -74.09014 | 10010 ft | 300 kts | 34° |
| 2026-04-30 22:09 | 40.54095 | -74.07457 | 10002 ft | 299 kts | 30° |
| 2026-04-30 22:09 | 40.55852 | -74.05970 | 9715 ft | 300 kts | 30° |
| 2026-04-30 22:10 | 40.57599 | -74.04505 | 9358 ft | 298 kts | 30° |
| 2026-04-30 22:10 | 40.59353 | -74.03027 | 9017 ft | 295 kts | 30° |
| 2026-04-30 22:10 | 40.61044 | -74.01598 | 8696 ft | 292 kts | 30° |
| 2026-04-30 22:10 | 40.62741 | -74.00156 | 8378 ft | 289 kts | 30° |
| 2026-04-30 22:11 | 40.65644 | -73.96610 | 7779 ft | 289 kts | 58° |
| 2026-04-30 22:11 | 40.66574 | -73.94268 | 7525 ft | 291 kts | 62° |
| 2026-04-30 22:11 | 40.67443 | -73.91890 | 7201 ft | 289 kts | 62° |
| 2026-04-30 22:12 | 40.68305 | -73.89484 | 6875 ft | 286 kts | 62° |
| 2026-04-30 22:12 | 40.69141 | -73.87139 | 6554 ft | 284 kts | 62° |
| 2026-04-30 22:12 | 40.69975 | -73.84791 | 6230 ft | 283 kts | 63° |
| 2026-04-30 22:12 | 40.70800 | -73.82468 | 5908 ft | 280 kts | 62° |
| 2026-04-30 22:13 | 40.71623 | -73.80148 | 5583 ft | 278 kts | 61° |
| 2026-04-30 22:13 | 40.72709 | -73.78082 | 5241 ft | 271 kts | 40° |
| 2026-04-30 22:13 | 40.74159 | -73.76558 | 4929 ft | 268 kts | 33° |
| 2026-04-30 22:13 | 40.75697 | -73.75133 | 4603 ft | 267 kts | 32° |
| 2026-04-30 22:14 | 40.77227 | -73.73743 | 4276 ft | 265 kts | 31° |
| 2026-04-30 22:14 | 40.78727 | -73.72382 | 3954 ft | 263 kts | 31° |
| 2026-04-30 22:14 | 40.80241 | -73.71006 | 3627 ft | 261 kts | 31° |
| 2026-04-30 22:14 | 40.81715 | -73.69666 | 3305 ft | 259 kts | 31° |
| 2026-04-30 22:15 | 40.83200 | -73.68312 | 3034 ft | 254 kts | 31° |
| 2026-04-30 22:15 | 40.84616 | -73.67017 | 2995 ft | 240 kts | 31° |
| 2026-04-30 22:15 | 40.85934 | -73.65803 | 2983 ft | 225 kts | 29° |
| 2026-04-30 22:15 | 40.87313 | -73.65120 | 2937 ft | 204 kts | 354° |
| 2026-04-30 22:16 | 40.88539 | -73.65786 | 2876 ft | 185 kts | 314° |
| 2026-04-30 22:16 | 40.89206 | -73.67143 | 2864 ft | 175 kts | 300° |
| 2026-04-30 22:17 | 40.90858 | -73.70924 | 2704 ft | 152 kts | 303° |
| 2026-04-30 22:17 | 40.91429 | -73.72098 | 2644 ft | 152 kts | 304° |
| 2026-04-30 22:17 | 40.92004 | -73.74709 | 2469 ft | 154 kts | 264° |
| 2026-04-30 22:18 | 40.91584 | -73.76012 | 2404 ft | 154 kts | 239° |
| 2026-04-30 22:18 | 40.89887 | -73.77711 | 2208 ft | 155 kts | 217° |
| 2026-04-30 22:19 | 40.88049 | -73.79204 | 1984 ft | 154 kts | 217° |
| 2026-04-30 22:19 | 40.87134 | -73.79955 | 1959 ft | 155 kts | 218° |
| 2026-04-30 22:19 | 40.85307 | -73.81467 | 1572 ft | 154 kts | 217° |
| 2026-04-30 22:20 | 40.84408 | -73.82210 | 1367 ft | 152 kts | 217° |
| 2026-04-30 22:20 | 40.82614 | -73.83681 | 962 ft | 150 kts | 217° |
| 2026-04-30 22:20 | 40.81742 | -73.84409 | 775 ft | 148 kts | 218° |
| 2026-04-30 22:21 | 40.80893 | -73.85123 | 592 ft | 148 kts | 215° |
| 2026-04-30 22:21 | 40.80014 | -73.85840 | 383 ft | 147 kts | 216° |
| 2026-04-30 22:21 | 40.79151 | -73.86550 | 204 ft | 146 kts | 218° |
| 2026-04-30 22:21 | 40.78299 | -73.87268 | 22 ft | 142 kts | 215° |
| 2026-04-30 22:22 | 40.77552 | -73.87893 | 16 ft | 106 kts | 211° |
| 2026-04-30 22:22 | 40.77085 | -73.88272 | 15 ft | 47 kts | 212° |
| 2026-04-30 22:22 | 40.76942 | -73.88357 | 17 ft | 6 kts | 141° |
| 2026-04-30 22:22 | 40.76941 | -73.88300 | 16 ft | 8 kts | 65° |
| 2026-04-30 22:23 | 40.76983 | -73.88235 | 15 ft | 10 kts | 43° |
| 2026-04-30 22:23 | 40.77037 | -73.88168 | 15 ft | 11 kts | 40° |
| 2026-04-30 22:23 | 40.77103 | -73.88109 | 15 ft | 11 kts | 31° |
| 2026-04-30 22:23 | 40.77174 | -73.88049 | 15 ft | 12 kts | 33° |
| 2026-04-30 22:24 | 40.77251 | -73.87987 | 15 ft | 13 kts | 31° |
| 2026-04-30 22:24 | 40.77336 | -73.87918 | 15 ft | 15 kts | 32° |
| 2026-04-30 22:24 | 40.77430 | -73.87841 | 15 ft | 16 kts | 32° |
| 2026-04-30 22:24 | 40.77530 | -73.87756 | 15 ft | 17 kts | 33° |
| 2026-04-30 22:25 | 40.77634 | -73.87669 | 15 ft | 18 kts | 31° |
| 2026-04-30 22:25 | 40.77746 | -73.87574 | 12 ft | 20 kts | 39° |
| 2026-04-30 22:25 | 40.77825 | -73.87426 | 12 ft | 20 kts | 76° |
| 2026-04-30 22:25 | 40.77819 | -73.87247 | 12 ft | 19 kts | 110° |
| 2026-04-30 22:26 | 40.77680 | -73.86938 | 11 ft | 20 kts | 124° |
| 2026-04-30 22:26 | 40.77604 | -73.86780 | 9 ft | 20 kts | 122° |
| 2026-04-30 22:26 | 40.77528 | -73.86621 | 9 ft | 20 kts | 122° |
| 2026-04-30 22:27 | 40.77452 | -73.86463 | 9 ft | 20 kts | 122° |
| 2026-04-30 22:27 | 40.77379 | -73.86307 | 9 ft | 19 kts | 122° |
| 2026-04-30 22:27 | 40.77234 | -73.86006 | 9 ft | 17 kts | 122° |
| 2026-04-30 22:28 | 40.77123 | -73.85863 | 9 ft | 10 kts | 192° |
| 2026-04-30 22:28 | 40.77058 | -73.85917 | 9 ft | 11 kts | 216° |
| 2026-04-30 22:29 | 40.76907 | -73.85996 | 9 ft | 3 kts | 255° |
| 2026-04-30 22:29 | 40.76913 | -73.86026 | 9 ft | 3 kts | 291° |
| 2026-04-30 22:30 | 40.76922 | -73.86053 | 9 ft | 0 kts | 294° |